sensor_id;sensor_type;location;lat;lon;timestamp;P1;durP1;ratioP1;P2;durP2;ratioP2
51824;SDS011;37879;52.986;6.282;2023-02-22T00:00:40;35.15;;;15.07;;
51824;SDS011;37879;52.986;6.282;2023-02-22T00:03:16;32.08;;;14.82;;
51824;SDS011;37879;52.986;6.282;2023-02-22T00:05:43;37.72;;;16.33;;
51824;SDS011;37879;52.986;6.282;2023-02-22T00:08:12;33.25;;;14.60;;
51824;SDS011;37879;52.986;6.282;2023-02-22T00:10:39;37.33;;;16.23;;
51824;SDS011;37879;52.986;6.282;2023-02-22T00:13:08;37.38;;;17.65;;
51824;SDS011;37879;52.986;6.282;2023-02-22T00:15:37;36.88;;;17.42;;
51824;SDS011;37879;52.986;6.282;2023-02-22T00:18:05;33.05;;;15.50;;
51824;SDS011;37879;52.986;6.282;2023-02-22T00:20:34;37.13;;;16.25;;
51824;SDS011;37879;52.986;6.282;2023-02-22T00:23:03;26.65;;;13.75;;
51824;SDS011;37879;52.986;6.282;2023-02-22T00:25:31;30.83;;;14.77;;
51824;SDS011;37879;52.986;6.282;2023-02-22T00:27:58;34.15;;;14.70;;
51824;SDS011;37879;52.986;6.282;2023-02-22T00:30:25;29.10;;;14.02;;
51824;SDS011;37879;52.986;6.282;2023-02-22T00:32:54;27.50;;;12.43;;
51824;SDS011;37879;52.986;6.282;2023-02-22T00:35:21;31.38;;;14.25;;
51824;SDS011;37879;52.986;6.282;2023-02-22T00:37:49;28.33;;;14.85;;
51824;SDS011;37879;52.986;6.282;2023-02-22T00:40:18;31.75;;;15.23;;
51824;SDS011;37879;52.986;6.282;2023-02-22T00:42:46;27.05;;;13.73;;
51824;SDS011;37879;52.986;6.282;2023-02-22T00:45:12;29.30;;;12.50;;
51824;SDS011;37879;52.986;6.282;2023-02-22T00:47:43;30.95;;;14.60;;
51824;SDS011;37879;52.986;6.282;2023-02-22T00:50:09;31.58;;;14.15;;
51824;SDS011;37879;52.986;6.282;2023-02-22T00:52:35;30.33;;;12.82;;
51824;SDS011;37879;52.986;6.282;2023-02-22T00:55:03;27.38;;;12.82;;
51824;SDS011;37879;52.986;6.282;2023-02-22T00:57:30;32.88;;;16.05;;
51824;SDS011;37879;52.986;6.282;2023-02-22T00:59:59;25.25;;;12.75;;
51824;SDS011;37879;52.986;6.282;2023-02-22T01:02:36;27.15;;;13.15;;
51824;SDS011;37879;52.986;6.282;2023-02-22T01:05:06;27.55;;;13.98;;
51824;SDS011;37879;52.986;6.282;2023-02-22T01:07:34;24.50;;;11.30;;
51824;SDS011;37879;52.986;6.282;2023-02-22T01:10:00;26.77;;;13.13;;
51824;SDS011;37879;52.986;6.282;2023-02-22T01:12:27;32.03;;;14.52;;
51824;SDS011;37879;52.986;6.282;2023-02-22T01:14:53;28.95;;;14.88;;
51824;SDS011;37879;52.986;6.282;2023-02-22T01:17:21;25.65;;;12.85;;
51824;SDS011;37879;52.986;6.282;2023-02-22T01:19:49;31.75;;;14.40;;
51824;SDS011;37879;52.986;6.282;2023-02-22T01:22:15;27.17;;;11.68;;
51824;SDS011;37879;52.986;6.282;2023-02-22T01:24:40;28.85;;;13.70;;
51824;SDS011;37879;52.986;6.282;2023-02-22T01:27:06;30.30;;;14.23;;
51824;SDS011;37879;52.986;6.282;2023-02-22T01:29:32;31.10;;;13.80;;
51824;SDS011;37879;52.986;6.282;2023-02-22T01:31:57;26.48;;;13.98;;
51824;SDS011;37879;52.986;6.282;2023-02-22T01:34:23;24.50;;;12.32;;
51824;SDS011;37879;52.986;6.282;2023-02-22T01:36:50;23.33;;;11.95;;
51824;SDS011;37879;52.986;6.282;2023-02-22T01:39:16;25.10;;;11.90;;
51824;SDS011;37879;52.986;6.282;2023-02-22T01:41:45;22.63;;;11.00;;
51824;SDS011;37879;52.986;6.282;2023-02-22T01:44:18;20.30;;;10.10;;
51824;SDS011;37879;52.986;6.282;2023-02-22T01:46:58;22.98;;;11.50;;
51824;SDS011;37879;52.986;6.282;2023-02-22T01:49:40;18.55;;;10.02;;
51824;SDS011;37879;52.986;6.282;2023-02-22T01:54:50;20.80;;;9.60;;
51824;SDS011;37879;52.986;6.282;2023-02-22T01:57:26;19.70;;;10.35;;
51824;SDS011;37879;52.986;6.282;2023-02-22T02:00:00;22.13;;;11.35;;
51824;SDS011;37879;52.986;6.282;2023-02-22T02:02:36;22.33;;;11.25;;
51824;SDS011;37879;52.986;6.282;2023-02-22T02:05:05;20.38;;;10.07;;
51824;SDS011;37879;52.986;6.282;2023-02-22T02:07:33;21.50;;;10.43;;
51824;SDS011;37879;52.986;6.282;2023-02-22T02:10:03;21.55;;;11.00;;
51824;SDS011;37879;52.986;6.282;2023-02-22T02:12:33;21.63;;;9.75;;
51824;SDS011;37879;52.986;6.282;2023-02-22T02:17:51;18.38;;;10.10;;
51824;SDS011;37879;52.986;6.282;2023-02-22T02:36:30;18.45;;;9.57;;
51824;SDS011;37879;52.986;6.282;2023-02-22T02:42:20;16.27;;;8.55;;
51824;SDS011;37879;52.986;6.282;2023-02-22T02:45:00;19.75;;;9.35;;
51824;SDS011;37879;52.986;6.282;2023-02-22T02:47:34;16.45;;;9.13;;
51824;SDS011;37879;52.986;6.282;2023-02-22T02:50:14;14.52;;;8.35;;
51824;SDS011;37879;52.986;6.282;2023-02-22T02:52:45;19.83;;;9.38;;
51824;SDS011;37879;52.986;6.282;2023-02-22T02:55:13;21.30;;;10.70;;
51824;SDS011;37879;52.986;6.282;2023-02-22T02:57:40;23.08;;;10.27;;
51824;SDS011;37879;52.986;6.282;2023-02-22T03:00:06;19.95;;;9.18;;
51824;SDS011;37879;52.986;6.282;2023-02-22T03:11:15;22.92;;;12.23;;
51824;SDS011;37879;52.986;6.282;2023-02-22T03:19:39;23.08;;;11.85;;
51824;SDS011;37879;52.986;6.282;2023-02-22T03:24:55;24.00;;;11.90;;
51824;SDS011;37879;52.986;6.282;2023-02-22T03:27:42;21.35;;;10.25;;
51824;SDS011;37879;52.986;6.282;2023-02-22T03:32:48;21.80;;;10.80;;
51824;SDS011;37879;52.986;6.282;2023-02-22T03:35:19;22.67;;;11.05;;
51824;SDS011;37879;52.986;6.282;2023-02-22T03:37:49;25.38;;;11.50;;
51824;SDS011;37879;52.986;6.282;2023-02-22T03:43:20;24.67;;;12.02;;
51824;SDS011;37879;52.986;6.282;2023-02-22T03:45:49;26.52;;;11.88;;
51824;SDS011;37879;52.986;6.282;2023-02-22T03:51:02;22.92;;;11.07;;
51824;SDS011;37879;52.986;6.282;2023-02-22T03:53:29;21.98;;;9.98;;
51824;SDS011;37879;52.986;6.282;2023-02-22T03:55:58;25.70;;;11.55;;
51824;SDS011;37879;52.986;6.282;2023-02-22T03:58:26;22.67;;;13.02;;
51824;SDS011;37879;52.986;6.282;2023-02-22T04:00:55;23.40;;;11.50;;
51824;SDS011;37879;52.986;6.282;2023-02-22T04:03:21;25.50;;;12.57;;
51824;SDS011;37879;52.986;6.282;2023-02-22T04:05:48;27.75;;;13.73;;
51824;SDS011;37879;52.986;6.282;2023-02-22T04:08:14;28.52;;;13.63;;
51824;SDS011;37879;52.986;6.282;2023-02-22T04:10:40;27.50;;;12.68;;
51824;SDS011;37879;52.986;6.282;2023-02-22T04:13:05;28.15;;;13.18;;
51824;SDS011;37879;52.986;6.282;2023-02-22T04:15:31;27.13;;;14.10;;
51824;SDS011;37879;52.986;6.282;2023-02-22T04:17:58;24.55;;;12.38;;
51824;SDS011;37879;52.986;6.282;2023-02-22T04:20:23;26.48;;;12.82;;
51824;SDS011;37879;52.986;6.282;2023-02-22T04:22:53;28.45;;;15.05;;
51824;SDS011;37879;52.986;6.282;2023-02-22T04:25:19;35.03;;;16.30;;
51824;SDS011;37879;52.986;6.282;2023-02-22T04:27:46;29.08;;;14.43;;
51824;SDS011;37879;52.986;6.282;2023-02-22T04:30:12;31.25;;;15.88;;
51824;SDS011;37879;52.986;6.282;2023-02-22T04:32:41;36.38;;;17.52;;
51824;SDS011;37879;52.986;6.282;2023-02-22T04:35:07;37.90;;;18.23;;
51824;SDS011;37879;52.986;6.282;2023-02-22T04:37:33;32.30;;;15.48;;
51824;SDS011;37879;52.986;6.282;2023-02-22T04:39:59;43.78;;;21.58;;
51824;SDS011;37879;52.986;6.282;2023-02-22T04:42:26;39.78;;;19.42;;
51824;SDS011;37879;52.986;6.282;2023-02-22T04:44:52;41.42;;;20.33;;
51824;SDS011;37879;52.986;6.282;2023-02-22T04:47:18;40.03;;;21.65;;
51824;SDS011;37879;52.986;6.282;2023-02-22T04:49:43;46.47;;;22.13;;
51824;SDS011;37879;52.986;6.282;2023-02-22T04:52:09;47.33;;;23.15;;
51824;SDS011;37879;52.986;6.282;2023-02-22T04:54:36;46.60;;;23.05;;
51824;SDS011;37879;52.986;6.282;2023-02-22T04:57:02;52.92;;;26.08;;
51824;SDS011;37879;52.986;6.282;2023-02-22T04:59:27;57.55;;;24.95;;
51824;SDS011;37879;52.986;6.282;2023-02-22T05:01:53;57.03;;;26.83;;
51824;SDS011;37879;52.986;6.282;2023-02-22T05:04:19;66.88;;;33.38;;
51824;SDS011;37879;52.986;6.282;2023-02-22T05:06:45;54.00;;;27.35;;
51824;SDS011;37879;52.986;6.282;2023-02-22T05:09:12;66.32;;;30.55;;
51824;SDS011;37879;52.986;6.282;2023-02-22T05:11:38;68.90;;;32.08;;
51824;SDS011;37879;52.986;6.282;2023-02-22T05:14:03;59.75;;;29.02;;
51824;SDS011;37879;52.986;6.282;2023-02-22T05:16:29;66.53;;;32.90;;
51824;SDS011;37879;52.986;6.282;2023-02-22T05:18:55;65.68;;;31.45;;
51824;SDS011;37879;52.986;6.282;2023-02-22T05:21:20;70.10;;;34.78;;
51824;SDS011;37879;52.986;6.282;2023-02-22T05:23:46;68.50;;;32.95;;
51824;SDS011;37879;52.986;6.282;2023-02-22T05:26:12;70.22;;;33.10;;
51824;SDS011;37879;52.986;6.282;2023-02-22T05:28:37;68.35;;;32.70;;
51824;SDS011;37879;52.986;6.282;2023-02-22T05:31:03;70.22;;;35.13;;
51824;SDS011;37879;52.986;6.282;2023-02-22T05:33:31;79.47;;;36.70;;
51824;SDS011;37879;52.986;6.282;2023-02-22T05:35:56;78.57;;;36.03;;
51824;SDS011;37879;52.986;6.282;2023-02-22T05:38:22;79.95;;;38.75;;
51824;SDS011;37879;52.986;6.282;2023-02-22T05:40:48;78.97;;;38.25;;
51824;SDS011;37879;52.986;6.282;2023-02-22T05:43:13;83.00;;;39.15;;
51824;SDS011;37879;52.986;6.282;2023-02-22T05:45:42;85.88;;;39.53;;
51824;SDS011;37879;52.986;6.282;2023-02-22T05:48:07;77.50;;;37.03;;
51824;SDS011;37879;52.986;6.282;2023-02-22T05:50:33;82.78;;;39.42;;
51824;SDS011;37879;52.986;6.282;2023-02-22T05:52:59;76.40;;;36.25;;
51824;SDS011;37879;52.986;6.282;2023-02-22T05:55:25;74.82;;;35.35;;
51824;SDS011;37879;52.986;6.282;2023-02-22T05:57:51;85.57;;;41.13;;
51824;SDS011;37879;52.986;6.282;2023-02-22T06:00:18;77.45;;;38.25;;
51824;SDS011;37879;52.986;6.282;2023-02-22T06:03:02;81.05;;;37.67;;
51824;SDS011;37879;52.986;6.282;2023-02-22T06:05:30;85.80;;;37.63;;
51824;SDS011;37879;52.986;6.282;2023-02-22T06:07:56;75.18;;;34.30;;
51824;SDS011;37879;52.986;6.282;2023-02-22T06:10:23;77.47;;;34.50;;
51824;SDS011;37879;52.986;6.282;2023-02-22T06:12:49;76.55;;;35.70;;
51824;SDS011;37879;52.986;6.282;2023-02-22T06:15:16;87.53;;;39.85;;
51824;SDS011;37879;52.986;6.282;2023-02-22T06:17:42;84.82;;;39.50;;
51824;SDS011;37879;52.986;6.282;2023-02-22T06:20:12;81.60;;;38.60;;
51824;SDS011;37879;52.986;6.282;2023-02-22T06:22:39;82.32;;;38.53;;
51824;SDS011;37879;52.986;6.282;2023-02-22T06:25:06;86.03;;;40.70;;
51824;SDS011;37879;52.986;6.282;2023-02-22T06:27:33;86.40;;;41.17;;
51824;SDS011;37879;52.986;6.282;2023-02-22T06:29:59;82.55;;;36.97;;
51824;SDS011;37879;52.986;6.282;2023-02-22T06:32:26;78.63;;;37.10;;
51824;SDS011;37879;52.986;6.282;2023-02-22T06:34:52;83.00;;;37.22;;
51824;SDS011;37879;52.986;6.282;2023-02-22T06:37:17;90.40;;;42.28;;
51824;SDS011;37879;52.986;6.282;2023-02-22T06:39:43;82.30;;;39.10;;
51824;SDS011;37879;52.986;6.282;2023-02-22T06:42:09;79.68;;;39.33;;
51824;SDS011;37879;52.986;6.282;2023-02-22T06:44:34;89.32;;;41.05;;
51824;SDS011;37879;52.986;6.282;2023-02-22T06:47:00;85.28;;;39.33;;
51824;SDS011;37879;52.986;6.282;2023-02-22T06:49:26;87.45;;;37.97;;
51824;SDS011;37879;52.986;6.282;2023-02-22T06:51:52;93.00;;;42.92;;
51824;SDS011;37879;52.986;6.282;2023-02-22T06:54:19;81.70;;;40.05;;
51824;SDS011;37879;52.986;6.282;2023-02-22T06:56:45;88.68;;;40.47;;
51824;SDS011;37879;52.986;6.282;2023-02-22T06:59:11;82.28;;;38.55;;
51824;SDS011;37879;52.986;6.282;2023-02-22T07:01:39;82.05;;;38.47;;
51824;SDS011;37879;52.986;6.282;2023-02-22T07:04:05;92.80;;;42.20;;
51824;SDS011;37879;52.986;6.282;2023-02-22T07:06:31;86.93;;;41.30;;
51824;SDS011;37879;52.986;6.282;2023-02-22T07:08:56;95.32;;;42.17;;
51824;SDS011;37879;52.986;6.282;2023-02-22T07:11:22;88.88;;;38.25;;
51824;SDS011;37879;52.986;6.282;2023-02-22T07:13:48;90.93;;;40.22;;
51824;SDS011;37879;52.986;6.282;2023-02-22T07:16:13;90.35;;;41.70;;
51824;SDS011;37879;52.986;6.282;2023-02-22T07:18:39;90.07;;;41.65;;
51824;SDS011;37879;52.986;6.282;2023-02-22T07:21:05;80.43;;;36.88;;
51824;SDS011;37879;52.986;6.282;2023-02-22T07:23:31;87.78;;;39.70;;
51824;SDS011;37879;52.986;6.282;2023-02-22T07:26:00;94.65;;;43.95;;
51824;SDS011;37879;52.986;6.282;2023-02-22T07:28:27;91.32;;;42.63;;
51824;SDS011;37879;52.986;6.282;2023-02-22T07:30:53;92.30;;;42.35;;
51824;SDS011;37879;52.986;6.282;2023-02-22T07:33:18;83.60;;;38.25;;
51824;SDS011;37879;52.986;6.282;2023-02-22T07:35:45;94.32;;;43.42;;
51824;SDS011;37879;52.986;6.282;2023-02-22T07:38:13;83.13;;;40.80;;
51824;SDS011;37879;52.986;6.282;2023-02-22T07:40:40;84.10;;;38.80;;
51824;SDS011;37879;52.986;6.282;2023-02-22T07:45:38;87.03;;;40.55;;
51824;SDS011;37879;52.986;6.282;2023-02-22T07:48:04;84.35;;;41.38;;
51824;SDS011;37879;52.986;6.282;2023-02-22T07:50:31;95.78;;;44.15;;
51824;SDS011;37879;52.986;6.282;2023-02-22T07:52:58;92.72;;;40.17;;
51824;SDS011;37879;52.986;6.282;2023-02-22T07:55:30;98.75;;;42.90;;
51824;SDS011;37879;52.986;6.282;2023-02-22T07:57:57;89.28;;;43.05;;
51824;SDS011;37879;52.986;6.282;2023-02-22T08:00:27;84.93;;;38.60;;
51824;SDS011;37879;52.986;6.282;2023-02-22T08:02:54;93.35;;;42.25;;
51824;SDS011;37879;52.986;6.282;2023-02-22T08:05:22;86.90;;;39.97;;
51824;SDS011;37879;52.986;6.282;2023-02-22T08:07:49;84.82;;;40.88;;
51824;SDS011;37879;52.986;6.282;2023-02-22T08:10:16;83.70;;;37.33;;
51824;SDS011;37879;52.986;6.282;2023-02-22T08:12:43;80.97;;;38.33;;
51824;SDS011;37879;52.986;6.282;2023-02-22T08:15:14;94.30;;;42.38;;
51824;SDS011;37879;52.986;6.282;2023-02-22T08:17:52;85.85;;;40.13;;
51824;SDS011;37879;52.986;6.282;2023-02-22T08:20:19;82.70;;;40.88;;
51824;SDS011;37879;52.986;6.282;2023-02-22T08:22:46;79.22;;;36.70;;
51824;SDS011;37879;52.986;6.282;2023-02-22T08:25:12;87.35;;;39.97;;
51824;SDS011;37879;52.986;6.282;2023-02-22T08:27:40;80.03;;;36.72;;
51824;SDS011;37879;52.986;6.282;2023-02-22T08:30:09;80.18;;;37.40;;
51824;SDS011;37879;52.986;6.282;2023-02-22T08:32:39;81.55;;;38.05;;
51824;SDS011;37879;52.986;6.282;2023-02-22T08:35:05;77.53;;;35.95;;
51824;SDS011;37879;52.986;6.282;2023-02-22T08:37:31;84.55;;;40.08;;
51824;SDS011;37879;52.986;6.282;2023-02-22T08:39:57;80.65;;;35.80;;
51824;SDS011;37879;52.986;6.282;2023-02-22T08:42:22;93.07;;;43.60;;
51824;SDS011;37879;52.986;6.282;2023-02-22T08:44:48;83.57;;;36.63;;
51824;SDS011;37879;52.986;6.282;2023-02-22T08:47:14;79.80;;;35.78;;
51824;SDS011;37879;52.986;6.282;2023-02-22T08:49:39;87.53;;;39.88;;
51824;SDS011;37879;52.986;6.282;2023-02-22T08:52:06;76.10;;;36.17;;
51824;SDS011;37879;52.986;6.282;2023-02-22T08:54:32;79.18;;;37.28;;
51824;SDS011;37879;52.986;6.282;2023-02-22T08:56:58;82.40;;;37.92;;
51824;SDS011;37879;52.986;6.282;2023-02-22T08:59:24;82.93;;;40.00;;
51824;SDS011;37879;52.986;6.282;2023-02-22T09:01:49;77.60;;;37.28;;
51824;SDS011;37879;52.986;6.282;2023-02-22T09:04:15;86.30;;;38.65;;
51824;SDS011;37879;52.986;6.282;2023-02-22T09:06:41;73.72;;;33.58;;
51824;SDS011;37879;52.986;6.282;2023-02-22T09:09:08;74.70;;;34.60;;
51824;SDS011;37879;52.986;6.282;2023-02-22T09:11:34;81.68;;;39.70;;
51824;SDS011;37879;52.986;6.282;2023-02-22T09:14:00;85.90;;;39.28;;
51824;SDS011;37879;52.986;6.282;2023-02-22T09:16:25;85.57;;;39.45;;
51824;SDS011;37879;52.986;6.282;2023-02-22T09:18:51;75.20;;;35.55;;
51824;SDS011;37879;52.986;6.282;2023-02-22T09:21:17;75.93;;;37.25;;
51824;SDS011;37879;52.986;6.282;2023-02-22T09:23:43;73.47;;;33.63;;
51824;SDS011;37879;52.986;6.282;2023-02-22T09:26:11;75.63;;;34.30;;
51824;SDS011;37879;52.986;6.282;2023-02-22T09:28:40;77.70;;;36.45;;
51824;SDS011;37879;52.986;6.282;2023-02-22T09:31:06;69.10;;;32.33;;
51824;SDS011;37879;52.986;6.282;2023-02-22T09:33:32;75.95;;;33.83;;
51824;SDS011;37879;52.986;6.282;2023-02-22T09:35:58;79.45;;;35.10;;
51824;SDS011;37879;52.986;6.282;2023-02-22T09:38:25;71.22;;;35.03;;
51824;SDS011;37879;52.986;6.282;2023-02-22T09:41:03;76.75;;;35.33;;
51824;SDS011;37879;52.986;6.282;2023-02-22T09:43:37;72.32;;;30.88;;
51824;SDS011;37879;52.986;6.282;2023-02-22T09:48:50;78.32;;;35.15;;
51824;SDS011;37879;52.986;6.282;2023-02-22T09:51:22;74.00;;;34.67;;
51824;SDS011;37879;52.986;6.282;2023-02-22T09:54:14;72.47;;;32.67;;
51824;SDS011;37879;52.986;6.282;2023-02-22T09:57:03;74.32;;;34.72;;
51824;SDS011;37879;52.986;6.282;2023-02-22T09:59:34;71.35;;;31.58;;
51824;SDS011;37879;52.986;6.282;2023-02-22T10:05:01;77.45;;;37.20;;
51824;SDS011;37879;52.986;6.282;2023-02-22T10:07:40;78.30;;;35.03;;
51824;SDS011;37879;52.986;6.282;2023-02-22T10:10:16;70.57;;;30.77;;
51824;SDS011;37879;52.986;6.282;2023-02-22T10:12:57;77.35;;;34.03;;
51824;SDS011;37879;52.986;6.282;2023-02-22T10:20:56;76.50;;;34.00;;
51824;SDS011;37879;52.986;6.282;2023-02-22T10:26:42;72.88;;;32.53;;
51824;SDS011;37879;52.986;6.282;2023-02-22T10:32:03;79.35;;;37.60;;
51824;SDS011;37879;52.986;6.282;2023-02-22T10:34:31;78.13;;;34.40;;
51824;SDS011;37879;52.986;6.282;2023-02-22T10:37:15;79.18;;;35.17;;
51824;SDS011;37879;52.986;6.282;2023-02-22T10:39:43;78.15;;;34.05;;
51824;SDS011;37879;52.986;6.282;2023-02-22T10:42:11;75.10;;;33.70;;
51824;SDS011;37879;52.986;6.282;2023-02-22T10:44:38;75.65;;;32.92;;
51824;SDS011;37879;52.986;6.282;2023-02-22T10:47:06;76.50;;;32.55;;
51824;SDS011;37879;52.986;6.282;2023-02-22T10:49:35;82.57;;;37.28;;
51824;SDS011;37879;52.986;6.282;2023-02-22T10:52:10;80.75;;;35.47;;
51824;SDS011;37879;52.986;6.282;2023-02-22T10:54:41;81.05;;;34.28;;
51824;SDS011;37879;52.986;6.282;2023-02-22T10:57:10;87.32;;;40.03;;
51824;SDS011;37879;52.986;6.282;2023-02-22T10:59:38;81.53;;;35.30;;
51824;SDS011;37879;52.986;6.282;2023-02-22T11:04:50;88.20;;;40.10;;
51824;SDS011;37879;52.986;6.282;2023-02-22T11:09:47;88.93;;;38.72;;
51824;SDS011;37879;52.986;6.282;2023-02-22T11:12:20;92.15;;;38.88;;
51824;SDS011;37879;52.986;6.282;2023-02-22T11:17:49;94.72;;;39.75;;
51824;SDS011;37879;52.986;6.282;2023-02-22T11:20:23;91.53;;;38.92;;
51824;SDS011;37879;52.986;6.282;2023-02-22T11:23:00;99.63;;;39.50;;
51824;SDS011;37879;52.986;6.282;2023-02-22T11:25:32;101.90;;;41.03;;
51824;SDS011;37879;52.986;6.282;2023-02-22T11:28:08;100.57;;;40.72;;
51824;SDS011;37879;52.986;6.282;2023-02-22T11:30:55;101.28;;;42.42;;
51824;SDS011;37879;52.986;6.282;2023-02-22T11:33:22;100.50;;;40.38;;
51824;SDS011;37879;52.986;6.282;2023-02-22T11:35:58;106.88;;;42.50;;
51824;SDS011;37879;52.986;6.282;2023-02-22T11:38:33;96.90;;;41.83;;
51824;SDS011;37879;52.986;6.282;2023-02-22T11:41:18;80.50;;;36.03;;
51824;SDS011;37879;52.986;6.282;2023-02-22T11:43:49;94.65;;;38.83;;
51824;SDS011;37879;52.986;6.282;2023-02-22T11:48:55;89.22;;;36.35;;
51824;SDS011;37879;52.986;6.282;2023-02-22T12:05:55;87.65;;;36.78;;
51824;SDS011;37879;52.986;6.282;2023-02-22T12:14:13;88.82;;;38.80;;
51824;SDS011;37879;52.986;6.282;2023-02-22T12:16:57;96.40;;;42.28;;
51824;SDS011;37879;52.986;6.282;2023-02-22T12:19:34;86.60;;;38.75;;
51824;SDS011;37879;52.986;6.282;2023-02-22T12:22:16;95.95;;;41.40;;
51824;SDS011;37879;52.986;6.282;2023-02-22T12:24:52;98.10;;;41.58;;
51824;SDS011;37879;52.986;6.282;2023-02-22T12:27:24;94.57;;;40.25;;
51824;SDS011;37879;52.986;6.282;2023-02-22T12:30:16;101.63;;;40.38;;
51824;SDS011;37879;52.986;6.282;2023-02-22T12:33:34;95.28;;;41.80;;
51824;SDS011;37879;52.986;6.282;2023-02-22T12:35:43;93.30;;;40.28;;
51824;SDS011;37879;52.986;6.282;2023-02-22T12:43:53;100.65;;;40.95;;
51824;SDS011;37879;52.986;6.282;2023-02-22T12:54:40;101.35;;;44.13;;
51824;SDS011;37879;52.986;6.282;2023-02-22T13:00:15;92.47;;;41.00;;
51824;SDS011;37879;52.986;6.282;2023-02-22T13:05:16;96.78;;;43.17;;
51824;SDS011;37879;52.986;6.282;2023-02-22T13:08:04;100.18;;;43.70;;
51824;SDS011;37879;52.986;6.282;2023-02-22T13:13:42;94.43;;;40.13;;
51824;SDS011;37879;52.986;6.282;2023-02-22T13:19:01;93.28;;;40.58;;
51824;SDS011;37879;52.986;6.282;2023-02-22T13:24:31;89.72;;;38.53;;
51824;SDS011;37879;52.986;6.282;2023-02-22T13:30:19;78.93;;;33.92;;
51824;SDS011;37879;52.986;6.282;2023-02-22T13:51:58;73.72;;;30.13;;
51824;SDS011;37879;52.986;6.282;2023-02-22T13:54:47;79.00;;;34.63;;
51824;SDS011;37879;52.986;6.282;2023-02-22T13:57:29;64.45;;;28.70;;
51824;SDS011;37879;52.986;6.282;2023-02-22T14:01:01;68.25;;;29.02;;
51824;SDS011;37879;52.986;6.282;2023-02-22T14:03:03;61.22;;;28.65;;
51824;SDS011;37879;52.986;6.282;2023-02-22T14:08:07;65.95;;;27.08;;
51824;SDS011;37879;52.986;6.282;2023-02-22T14:10:59;67.10;;;28.92;;
51824;SDS011;37879;52.986;6.282;2023-02-22T14:19:10;58.42;;;24.42;;
51824;SDS011;37879;52.986;6.282;2023-02-22T14:24:19;71.88;;;31.88;;
51824;SDS011;37879;52.986;6.282;2023-02-22T14:29:27;68.85;;;29.42;;
51824;SDS011;37879;52.986;6.282;2023-02-22T14:32:04;68.40;;;29.58;;
51824;SDS011;37879;52.986;6.282;2023-02-22T14:34:40;60.70;;;27.98;;
51824;SDS011;37879;52.986;6.282;2023-02-22T14:37:26;59.70;;;27.48;;
51824;SDS011;37879;52.986;6.282;2023-02-22T14:40:18;55.92;;;26.08;;
51824;SDS011;37879;52.986;6.282;2023-02-22T14:45:48;53.30;;;25.55;;
51824;SDS011;37879;52.986;6.282;2023-02-22T14:48:31;54.95;;;26.00;;
51824;SDS011;37879;52.986;6.282;2023-02-22T14:51:18;55.17;;;23.45;;
51824;SDS011;37879;52.986;6.282;2023-02-22T14:53:47;58.45;;;24.30;;
51824;SDS011;37879;52.986;6.282;2023-02-22T14:56:18;53.53;;;23.92;;
51824;SDS011;37879;52.986;6.282;2023-02-22T14:59:19;55.80;;;25.08;;
51824;SDS011;37879;52.986;6.282;2023-02-22T15:01:56;56.78;;;25.90;;
51824;SDS011;37879;52.986;6.282;2023-02-22T15:04:50;50.10;;;24.67;;
51824;SDS011;37879;52.986;6.282;2023-02-22T15:07:21;55.35;;;26.10;;
51824;SDS011;37879;52.986;6.282;2023-02-22T15:09:55;58.42;;;27.27;;
51824;SDS011;37879;52.986;6.282;2023-02-22T15:12:41;62.25;;;28.45;;
51824;SDS011;37879;52.986;6.282;2023-02-22T15:15:21;59.33;;;28.52;;
51824;SDS011;37879;52.986;6.282;2023-02-22T15:17:51;57.95;;;26.13;;
51824;SDS011;37879;52.986;6.282;2023-02-22T15:20:22;52.20;;;23.55;;
51824;SDS011;37879;52.986;6.282;2023-02-22T15:22:49;55.65;;;26.75;;
51824;SDS011;37879;52.986;6.282;2023-02-22T15:25:26;53.83;;;24.60;;
51824;SDS011;37879;52.986;6.282;2023-02-22T15:27:52;54.00;;;25.60;;
51824;SDS011;37879;52.986;6.282;2023-02-22T15:30:26;50.80;;;24.00;;
51824;SDS011;37879;52.986;6.282;2023-02-22T15:32:54;50.03;;;25.17;;
51824;SDS011;37879;52.986;6.282;2023-02-22T15:37:59;49.20;;;22.40;;
51824;SDS011;37879;52.986;6.282;2023-02-22T15:40:33;51.55;;;23.92;;
51824;SDS011;37879;52.986;6.282;2023-02-22T15:43:04;50.13;;;23.48;;
51824;SDS011;37879;52.986;6.282;2023-02-22T15:45:32;53.65;;;24.88;;
51824;SDS011;37879;52.986;6.282;2023-02-22T15:47:59;50.08;;;22.33;;
51824;SDS011;37879;52.986;6.282;2023-02-22T15:50:29;48.63;;;22.17;;
51824;SDS011;37879;52.986;6.282;2023-02-22T15:57:58;55.08;;;23.38;;
51824;SDS011;37879;52.986;6.282;2023-02-22T16:00:35;45.83;;;22.38;;
51824;SDS011;37879;52.986;6.282;2023-02-22T16:03:12;52.20;;;26.08;;
51824;SDS011;37879;52.986;6.282;2023-02-22T16:05:42;53.72;;;23.42;;
51824;SDS011;37879;52.986;6.282;2023-02-22T16:08:18;45.63;;;22.25;;
51824;SDS011;37879;52.986;6.282;2023-02-22T16:13:37;43.22;;;21.52;;
51824;SDS011;37879;52.986;6.282;2023-02-22T16:18:48;46.63;;;22.10;;
51824;SDS011;37879;52.986;6.282;2023-02-22T16:21:16;50.60;;;21.85;;
51824;SDS011;37879;52.986;6.282;2023-02-22T16:23:49;45.85;;;21.17;;
51824;SDS011;37879;52.986;6.282;2023-02-22T16:26:24;57.50;;;26.95;;
51824;SDS011;37879;52.986;6.282;2023-02-22T16:29:04;50.28;;;24.85;;
51824;SDS011;37879;52.986;6.282;2023-02-22T16:31:32;43.93;;;22.27;;
51824;SDS011;37879;52.986;6.282;2023-02-22T16:34:04;47.58;;;22.23;;
51824;SDS011;37879;52.986;6.282;2023-02-22T16:36:36;48.25;;;22.95;;
51824;SDS011;37879;52.986;6.282;2023-02-22T16:39:03;43.85;;;21.27;;
51824;SDS011;37879;52.986;6.282;2023-02-22T16:41:31;45.25;;;22.55;;
51824;SDS011;37879;52.986;6.282;2023-02-22T16:43:57;46.92;;;21.98;;
51824;SDS011;37879;52.986;6.282;2023-02-22T16:46:23;49.25;;;23.45;;
51824;SDS011;37879;52.986;6.282;2023-02-22T16:48:48;39.85;;;21.20;;
51824;SDS011;37879;52.986;6.282;2023-02-22T16:51:19;47.05;;;22.10;;
51824;SDS011;37879;52.986;6.282;2023-02-22T16:53:48;39.97;;;20.63;;
51824;SDS011;37879;52.986;6.282;2023-02-22T16:56:14;37.90;;;19.20;;
51824;SDS011;37879;52.986;6.282;2023-02-22T16:58:42;42.13;;;21.55;;
51824;SDS011;37879;52.986;6.282;2023-02-22T17:01:09;43.20;;;21.75;;
51824;SDS011;37879;52.986;6.282;2023-02-22T17:03:36;41.83;;;21.23;;
51824;SDS011;37879;52.986;6.282;2023-02-22T17:06:02;44.08;;;21.52;;
51824;SDS011;37879;52.986;6.282;2023-02-22T17:08:29;42.67;;;20.23;;
51824;SDS011;37879;52.986;6.282;2023-02-22T17:10:55;43.95;;;20.27;;
51824;SDS011;37879;52.986;6.282;2023-02-22T17:13:24;43.03;;;19.58;;
51824;SDS011;37879;52.986;6.282;2023-02-22T17:15:51;38.25;;;19.77;;
51824;SDS011;37879;52.986;6.282;2023-02-22T17:18:19;41.28;;;20.10;;
51824;SDS011;37879;52.986;6.282;2023-02-22T17:20:50;44.55;;;21.25;;
51824;SDS011;37879;52.986;6.282;2023-02-22T17:23:17;42.13;;;19.77;;
51824;SDS011;37879;52.986;6.282;2023-02-22T17:25:44;42.08;;;20.65;;
51824;SDS011;37879;52.986;6.282;2023-02-22T17:28:14;45.25;;;22.40;;
51824;SDS011;37879;52.986;6.282;2023-02-22T17:30:41;48.13;;;22.58;;
51824;SDS011;37879;52.986;6.282;2023-02-22T17:33:09;50.15;;;25.30;;
51824;SDS011;37879;52.986;6.282;2023-02-22T17:35:39;42.83;;;21.15;;
51824;SDS011;37879;52.986;6.282;2023-02-22T17:38:05;41.83;;;21.17;;